Terminal Aerodrome Forecast
Issued by NWS Cleveland, OH

Home | Current Version | Previous Version | Text Only | Print | Product List | Glossary Off
Versions: 1 2 3 4 5 6 7 8 9 10 11 12 13 14 15 16 17 18 19 20

000
FTUS41 KCLE 251100
TAFERI
TAF
KERI 251131Z 2512/2612 18006KT P6SM SKC
     FM251400 22006KT P6SM FEW040 SCT250
     FM251800 29008KT P6SM SCT040 SCT250
     FM252300 25007KT P6SM SCT040 SCT250
     FM260300 24006KT P6SM SCT120 BKN250=

USA.gov is the U.S. government's official web portal to all federal, state and local government web resources and services.